S27 weather

Kalispell City Airport
Kalispell, Montana, United States

Public forecast

Using degrees Fahrenheit for public forecast. Weather courtesy of forecast.io.

Closest aviation weather report (METAR) to Kalispell City Airport

Closest report is Glacier Park International Airport, 8.1 nm (15.1 km) NNE. Retrieved 2020/05/30 05:55 UTC (12 minutes ago):

KGPI 300555Z AUTO 00000KT 10SM CLR 15/11 A2996 RMK AO2 SLP133 T01500106 10278 20144 51004 TSNO

Closest aviation forecast (TAF) to Kalispell City Airport

Closest forecast is Glacier Park International Airport, 8.1 nm (15.1 km) NNE. Retrieved 2020/05/30 06:24 UTC (0 seconds ago):

TAF KGPI 300521Z 3006/3106 02008KT P6SM FEW100 FM302000 12012G19KT P6SM SKC